Time;durP1;ratioP1;P1;durP2;ratioP2;P2;SDS_P1;SDS_P2;PMS_P1;PMS_P2;Temp;Humidity;BMP_temperature;BMP_pressure;BME280_temperature;BME280_humidity;BME280_pressure;Samples;Min_cycle;Max_cycle;Signal;HPM_P1;HPM_P2
2021/12/12 00:01:18;;;;;;;;;24.50;23.75;;;;;9.25;67.40;102192.13;5057433;28;45375;-82
2021/12/12 00:03:49;;;;;;;;;29.50;28.00;;;;;9.25;67.61;102179.91;5043666;28;45496;-82
2021/12/12 00:06:20;;;;;;;;;25.50;22.50;;;;;9.20;68.05;102185.16;5039292;28;45439;-82
2021/12/12 00:08:52;;;;;;;;;22.25;19.50;;;;;9.22;67.77;102186.03;5049740;28;48002;-81
2021/12/12 00:11:22;;;;;;;;;25.25;21.00;;;;;9.24;68.07;102178.13;5057621;28;45443;-81
2021/12/12 00:14:01;;;;;;;;;21.50;18.75;;;;;9.27;68.12;102174.63;5057784;28;45404;-81
2021/12/12 00:16:28;;;;;;;;;29.00;22.00;;;;;9.29;68.39;102186.88;5051545;28;46383;-81
2021/12/12 00:18:54;;;;;;;;;20.00;17.00;;;;;9.29;68.39;102167.63;5062614;28;45445;-81
2021/12/12 00:21:24;;;;;;;;;28.50;21.75;;;;;9.32;68.76;102175.50;5048002;28;45481;-81
2021/12/12 00:23:49;;;;;;;;;19.75;18.25;;;;;9.26;68.12;102172.91;5062392;28;45215;-81
2021/12/12 00:26:15;;;;;;;;;21.50;19.25;;;;;9.20;68.38;102169.44;5062597;28;45420;-81
2021/12/12 00:28:40;;;;;;;;;28.75;25.25;;;;;9.22;68.60;102162.41;5062418;28;46408;-80
2021/12/12 00:31:10;;;;;;;;;22.00;20.00;;;;;9.19;68.74;102164.16;5059255;28;45437;-82
2021/12/12 00:33:38;;;;;;;;;22.00;17.00;;;;;9.22;68.91;102161.53;5054599;28;45319;-81
2021/12/12 00:36:05;;;;;;;;;17.75;17.75;;;;;9.18;69.27;102163.31;5057783;28;46517;-83
2021/12/12 00:38:33;;;;;;;;;19.75;18.75;;;;;9.20;69.13;102148.44;5049364;28;45422;-82
2021/12/12 00:41:10;;;;;;;;;23.75;21.75;;;;;9.14;69.21;102153.69;5045929;28;45483;-82
2021/12/12 00:43:40;;;;;;;;;25.00;20.75;;;;;9.14;69.46;102155.44;5053371;28;45275;-81
2021/12/12 00:46:10;;;;;;;;;19.00;16.75;;;;;9.15;69.31;102171.19;5055028;28;45509;-82
2021/12/12 00:48:38;;;;;;;;;17.50;17.25;;;;;9.10;69.81;102157.22;5041996;28;46218;-82
2021/12/12 00:51:06;;;;;;;;;19.00;16.00;;;;;9.12;69.34;102165.94;5051927;28;45765;-82
2021/12/12 00:53:32;;;;;;;;;20.50;15.75;;;;;9.16;69.39;102156.31;5062409;28;45390;-82
2021/12/12 00:55:57;;;;;;;;;24.50;20.00;;;;;9.18;69.50;102160.69;5058978;28;45573;-82
2021/12/12 00:58:24;;;;;;;;;20.25;18.00;;;;;9.22;69.72;102169.41;5051602;28;45462;-82
2021/12/12 01:00:56;;;;;;;;;17.50;14.50;;;;;9.23;69.74;102161.53;5055707;28;45378;-81
2021/12/12 01:03:26;;;;;;;;;21.75;18.50;;;;;9.27;69.62;102156.25;5061870;28;45448;-81
2021/12/12 01:05:54;;;;;;;;;19.50;16.75;;;;;9.31;69.54;102160.66;5061832;28;45359;-81
2021/12/12 01:08:19;;;;;;;;;16.50;12.75;;;;;9.32;69.53;102147.50;5062035;28;45526;-81
2021/12/12 01:10:58;;;;;;;;;15.50;15.25;;;;;9.34;69.49;102150.09;5060122;28;45854;-81
2021/12/12 01:13:24;;;;;;;;;15.50;15.50;;;;;9.32;69.65;102151.88;5061699;28;45445;-81
2021/12/12 01:16:05;;;;;;;;;11.50;11.25;;;;;9.32;69.87;102136.13;5052591;28;45319;-81
2021/12/12 01:18:38;;;;;;;;;14.50;13.50;;;;;9.36;69.67;102140.47;5058908;28;45529;-81
2021/12/12 01:21:12;;;;;;;;;15.50;15.50;;;;;9.34;69.63;102142.22;5060583;28;45160;-79
2021/12/12 01:23:49;;;;;;;;;19.00;13.50;;;;;9.36;69.76;102139.63;5060820;28;45516;-79
2021/12/12 01:26:15;;;;;;;;;20.25;15.75;;;;;9.33;69.59;102133.47;5057594;28;45293;-78
2021/12/12 01:28:43;;;;;;;;;21.00;15.25;;;;;9.30;69.91;102141.41;5061410;28;45307;-78
2021/12/12 01:31:13;;;;;;;;;12.75;12.25;;;;;9.28;69.93;102147.53;5052267;28;45918;-79
2021/12/12 01:33:38;;;;;;;;;19.75;14.25;;;;;9.29;70.32;102150.13;5061861;28;45175;-79
2021/12/12 01:36:29;;;;;;;;;17.50;13.25;;;;;9.34;70.19;102158.88;5052552;28;45211;-79
2021/12/12 01:38:56;;;;;;;;;12.25;10.25;;;;;9.36;70.36;102163.25;5051700;28;45436;-80
2021/12/12 01:41:31;;;;;;;;;15.00;12.25;;;;;9.34;70.44;102155.34;5053830;28;45244;-80
2021/12/12 01:44:07;;;;;;;;;13.75;13.25;;;;;9.29;70.25;102158.00;5061343;28;45232;-80
2021/12/12 01:46:39;;;;;;;;;12.75;12.00;;;;;9.34;70.54;102157.97;5044339;28;45328;-80
2021/12/12 01:49:19;;;;;;;;;16.50;15.50;;;;;9.34;70.64;102160.59;5041256;28;46250;-80
2021/12/12 01:51:47;;;;;;;;;14.75;14.50;;;;;9.35;70.93;102159.75;5056704;28;45245;-79
2021/12/12 01:54:15;;;;;;;;;14.75;14.25;;;;;9.36;70.75;102166.72;5060798;28;45342;-85
2021/12/12 01:56:53;;;;;;;;;17.75;13.50;;;;;9.38;70.50;102164.97;5060688;28;45458;-84
2021/12/12 01:59:22;;;;;;;;;13.50;12.25;;;;;9.38;70.59;102162.34;5059779;28;45601;-84
2021/12/12 02:01:57;;;;;;;;;12.00;12.00;;;;;9.42;70.95;102165.81;5057790;28;45726;-84
2021/12/12 02:04:34;;;;;;;;;13.00;12.75;;;;;9.41;70.59;102169.31;5060154;28;45425;-84
2021/12/12 02:07:03;;;;;;;;;16.75;15.00;;;;;9.40;70.83;102176.34;5048877;28;45590;-84
2021/12/12 02:09:29;;;;;;;;;12.75;11.50;;;;;9.42;70.81;102184.19;5058908;28;46253;-84
2021/12/12 02:11:58;;;;;;;;;12.00;12.00;;;;;9.44;70.86;102177.19;5059374;28;45307;-84
2021/12/12 02:14:24;;;;;;;;;12.25;11.25;;;;;9.45;70.54;102185.06;5060879;28;45377;-84
2021/12/12 02:16:58;;;;;;;;;9.50;8.50;;;;;9.48;70.92;102178.94;5054382;28;45385;-83
2021/12/12 02:19:37;;;;;;;;;12.00;10.00;;;;;9.49;70.95;102185.91;5058895;28;45507;-84
2021/12/12 02:22:31;;;;;;;;;18.75;16.75;;;;;9.51;70.94;102178.88;5048358;28;45426;-83
2021/12/12 02:35:58;;;;;;;;;21.25;20.75;;;;;9.51;71.07;102193.75;5047612;28;45379;-80
2021/12/12 02:38:31;;;;;;;;;15.00;11.50;;;;;9.48;71.07;102191.19;5041903;28;45425;-80
2021/12/12 02:41:04;;;;;;;;;10.50;10.50;;;;;9.48;71.06;102199.94;5060499;28;45186;-81
2021/12/12 02:43:34;;;;;;;;;9.75;8.50;;;;;9.51;71.13;102193.75;5049280;28;45881;-81
2021/12/12 02:46:00;;;;;;;;;15.50;10.50;;;;;9.54;71.29;102199.88;5054244;28;45228;-81
2021/12/12 02:48:29;;;;;;;;;10.00;8.25;;;;;9.56;71.10;102207.75;5052310;28;45583;-80
2021/12/12 02:50:57;;;;;;;;;7.50;7.50;;;;;9.58;71.16;102205.97;5058513;28;46102;-80
2021/12/12 02:53:29;;;;;;;;;11.50;10.00;;;;;9.59;70.96;102191.97;5059949;28;45212;-79
2021/12/12 02:56:03;;;;;;;;;14.75;11.50;;;;;9.64;71.15;102210.31;5059389;28;45413;-78
2021/12/12 02:58:29;;;;;;;;;11.00;8.75;;;;;9.64;71.04;102200.72;5047607;28;45448;-79
2021/12/12 03:01:09;;;;;;;;;9.50;8.50;;;;;9.69;71.22;102203.31;5046462;28;45573;-79
2021/12/12 03:03:37;;;;;;;;;9.75;9.25;;;;;9.67;70.81;102200.69;5050561;28;45302;-78
2021/12/12 03:06:05;;;;;;;;;10.00;10.00;;;;;9.72;71.10;102202.41;5060140;28;45296;-78
2021/12/12 03:08:31;;;;;;;;;3.00;1.00;;;;;9.71;71.16;102198.91;5050911;28;45404;-79
2021/12/12 03:10:57;;;;;;;;;16.50;13.25;;;;;9.71;71.00;102198.03;5055955;28;46429;-80
2021/12/12 03:13:24;;;;;;;;;9.75;9.75;;;;;9.76;71.02;102212.88;5049080;28;45235;-80
2021/12/12 03:15:52;;;;;;;;;10.50;8.00;;;;;9.73;71.09;102206.81;5060092;28;45452;-80
2021/12/12 03:18:29;;;;;;;;;11.00;8.25;;;;;9.75;71.16;102199.78;5050769;28;45515;-80
2021/12/12 03:21:01;;;;;;;;;10.25;10.25;;;;;9.78;71.15;102205.00;5056602;28;45432;-79
2021/12/12 03:23:33;;;;;;;;;10.50;9.00;;;;;9.78;71.10;102203.25;5048716;28;45387;-79
2021/12/12 03:26:08;;;;;;;;;9.75;9.75;;;;;9.82;71.25;102205.84;5039817;28;45410;-78
2021/12/12 03:28:36;;;;;;;;;10.50;9.75;;;;;9.82;70.90;102204.13;5038928;28;45250;-79
2021/12/12 03:31:06;;;;;;;;;10.00;8.50;;;;;9.87;70.92;102210.22;5041556;28;46470;-79
2021/12/12 03:33:33;;;;;;;;;11.75;7.50;;;;;9.86;70.88;102210.19;5059932;28;45771;-79
2021/12/12 03:36:02;;;;;;;;;9.00;7.75;;;;;9.84;70.91;102210.22;5050267;28;45450;-79
2021/12/12 03:38:29;;;;;;;;;9.00;7.50;;;;;9.86;71.11;102212.81;5058391;28;45470;-79
2021/12/12 03:40:59;;;;;;;;;8.75;8.75;;;;;9.85;70.87;102206.69;5059488;28;46402;-80
2021/12/12 03:43:25;;;;;;;;;8.75;8.00;;;;;9.88;71.25;102211.06;5054625;28;45275;-79
2021/12/12 03:45:51;;;;;;;;;9.00;9.00;;;;;9.88;71.31;102209.31;5051440;28;45509;-81
2021/12/12 03:48:27;;;;;;;;;10.75;9.75;;;;;9.88;70.87;102211.94;5061081;28;45507;-80
2021/12/12 03:50:56;;;;;;;;;11.75;10.00;;;;;9.89;71.15;102211.06;5055712;28;45460;-79
2021/12/12 03:53:24;;;;;;;;;11.25;10.25;;;;;9.90;70.97;102212.78;5047247;28;45702;-79
2021/12/12 03:55:49;;;;;;;;;9.00;9.00;;;;;9.90;71.02;102211.94;5063361;28;45289;-79
2021/12/12 03:58:15;;;;;;;;;9.50;9.50;;;;;9.89;71.13;102211.06;5058483;28;45142;-79
2021/12/12 04:00:52;;;;;;;;;8.00;8.00;;;;;9.90;70.91;102211.94;5062733;27;45611;-79
2021/12/12 04:03:18;;;;;;;;;12.00;10.75;;;;;9.93;71.07;102218.91;5062489;28;45851;-79
2021/12/12 04:05:49;;;;;;;;;10.00;8.50;;;;;9.91;71.01;102205.78;5063244;28;45318;-80
2021/12/12 04:08:15;;;;;;;;;11.75;9.00;;;;;9.91;71.21;102208.44;5061786;28;45282;-80
2021/12/12 04:10:41;;;;;;;;;12.00;9.25;;;;;9.95;71.20;102212.75;5062616;28;46551;-82
2021/12/12 04:13:08;;;;;;;;;10.25;9.25;;;;;9.93;70.98;102204.03;5048963;28;45326;-80
2021/12/12 04:15:34;;;;;;;;;11.75;11.75;;;;;9.96;71.32;102211.00;5057390;28;45461;-78
2021/12/12 04:17:59;;;;;;;;;9.50;8.00;;;;;9.96;71.22;102205.75;5048737;28;45351;-80
2021/12/12 04:20:32;;;;;;;;;9.75;9.50;;;;;9.96;71.29;102217.16;5049264;28;45334;-80
2021/12/12 04:22:58;;;;;;;;;9.00;9.00;;;;;9.98;71.36;102225.00;5062774;28;45889;-81
2021/12/12 04:25:25;;;;;;;;;11.00;9.00;;;;;9.99;71.39;102229.38;5060291;28;45460;-85
2021/12/12 04:27:53;;;;;;;;;10.50;10.50;;;;;9.98;71.18;102227.63;5043465;28;45439;-85
2021/12/12 04:30:19;;;;;;;;;7.00;7.00;;;;;9.96;71.40;102226.78;5050559;28;46527;-85
2021/12/12 04:32:46;;;;;;;;;13.00;10.00;;;;;10.00;71.41;102229.38;5060727;28;45219;-85
2021/12/12 04:35:20;;;;;;;;;10.75;8.25;;;;;10.01;71.43;102230.25;5055792;28;45405;-85
2021/12/12 04:37:47;;;;;;;;;14.25;9.75;;;;;10.04;71.09;102229.34;5042018;28;45280;-86
2021/12/12 04:40:16;;;;;;;;;11.75;10.50;;;;;10.05;71.12;102237.22;5046794;28;45360;-86
2021/12/12 04:42:44;;;;;;;;;13.25;12.25;;;;;10.04;71.24;102235.50;5062005;28;45225;-86
2021/12/12 04:46:20;;;;;;;;;11.00;11.00;;;;;10.08;71.41;102236.31;5060448;28;45172;-86
2021/12/12 04:51:33;;;;;;;;;13.25;11.25;;;;;10.07;71.39;102235.47;5052215;28;45801;-83
2021/12/12 04:54:15;;;;;;;;;12.25;12.25;;;;;10.07;71.34;102238.09;5046537;28;45409;-84
2021/12/12 04:56:59;;;;;;;;;11.75;9.75;;;;;10.06;71.71;102233.72;5062044;28;45480;-84
2021/12/12 04:59:53;;;;;;;;;13.50;11.50;;;;;10.09;71.64;102244.22;5041624;28;45402;-84
2021/12/12 05:02:37;;;;;;;;;18.00;12.75;;;;;10.11;71.45;102249.44;5048877;28;45221;-83
2021/12/12 05:05:11;;;;;;;;;9.75;9.75;;;;;10.12;71.43;102254.69;5060556;28;45712;-82
2021/12/12 05:07:55;;;;;;;;;13.75;10.50;;;;;10.15;71.63;102260.81;5062109;28;45219;-81
2021/12/12 05:10:31;;;;;;;;;11.00;11.00;;;;;10.11;71.72;102258.22;5061975;28;45535;-81
2021/12/12 05:13:06;;;;;;;;;16.00;12.25;;;;;10.12;71.49;102261.72;5061481;28;45473;-79
2021/12/12 05:15:36;;;;;;;;;14.00;11.50;;;;;10.12;71.55;102259.94;5052348;28;46654;-80
2021/12/12 05:18:15;;;;;;;;;14.00;13.00;;;;;10.15;71.89;102264.31;5046061;28;45616;-80
2021/12/12 05:20:49;;;;;;;;;14.75;14.00;;;;;10.15;71.62;102261.69;5052784;28;45449;-81
2021/12/12 05:23:19;;;;;;;;;16.75;14.00;;;;;10.15;71.57;102264.31;5059801;28;46442;-81
2021/12/12 05:25:56;;;;;;;;;15.50;14.25;;;;;10.16;71.59;102266.06;5061735;28;45787;-81
2021/12/12 05:28:28;;;;;;;;;18.00;16.50;;;;;10.19;71.67;102257.28;5061282;28;45367;-80
2021/12/12 05:30:54;;;;;;;;;15.75;14.50;;;;;10.18;71.76;102261.66;5055198;28;45453;-80
2021/12/12 05:33:20;;;;;;;;;14.25;13.00;;;;;10.19;71.57;102267.81;5047867;28;45247;-80
2021/12/12 05:35:47;;;;;;;;;17.75;15.75;;;;;10.20;71.55;102261.63;5051539;28;45461;-80
2021/12/12 05:38:14;;;;;;;;;20.50;18.00;;;;;10.21;71.93;102269.53;5051136;28;45440;-81
2021/12/12 05:40:44;;;;;;;;;20.00;14.00;;;;;10.18;71.82;102266.03;5054644;28;45425;-82
2021/12/12 05:43:12;;;;;;;;;19.25;16.00;;;;;10.22;72.06;102278.28;5052838;28;46564;-79
2021/12/12 05:45:38;;;;;;;;;22.50;20.75;;;;;10.17;71.70;102266.94;5056387;28;45989;-79
2021/12/12 05:48:06;;;;;;;;;17.00;13.00;;;;;10.18;71.78;102269.53;5052455;28;45417;-79
2021/12/12 05:50:31;;;;;;;;;18.00;15.75;;;;;10.19;71.83;102273.94;5057213;28;45529;-80
2021/12/12 05:52:57;;;;;;;;;20.25;15.75;;;;;10.22;71.80;102278.28;5059465;28;45133;-80
2021/12/12 05:55:27;;;;;;;;;20.75;18.00;;;;;10.27;71.96;102284.41;5056978;28;45275;-82
2021/12/12 05:57:55;;;;;;;;;16.75;15.25;;;;;10.28;71.68;102282.63;5047477;28;45406;-78
2021/12/12 06:00:30;;;;;;;;;18.25;17.25;;;;;10.29;71.80;102292.25;5060991;28;45586;-81
2021/12/12 06:02:56;;;;;;;;;21.75;18.25;;;;;10.27;71.71;102283.53;5060893;28;46392;-80
2021/12/12 06:05:22;;;;;;;;;22.75;17.25;;;;;10.28;71.72;102291.38;5059218;28;45259;-80
2021/12/12 06:07:49;;;;;;;;;18.00;16.75;;;;;10.28;71.91;102288.75;5053699;28;45243;-80
2021/12/12 06:10:17;;;;;;;;;21.75;19.25;;;;;10.31;71.64;102295.75;5055552;28;45521;-81
2021/12/12 06:12:44;;;;;;;;;17.25;13.25;;;;;10.29;71.69;102293.13;5060744;28;46532;-81
2021/12/12 06:15:20;;;;;;;;;13.50;12.00;;;;;10.30;72.02;102294.00;5058925;28;45408;-80
2021/12/12 06:17:48;;;;;;;;;22.25;16.75;;;;;10.31;71.77;102291.38;5047020;28;45462;-80
2021/12/12 06:20:15;;;;;;;;;14.25;13.75;;;;;10.33;72.04;102292.22;5055401;28;45504;-81
2021/12/12 06:22:41;;;;;;;;;18.00;16.50;;;;;10.34;71.85;102299.25;5060591;28;45667;-79
2021/12/12 06:25:08;;;;;;;;;15.25;14.50;;;;;10.33;71.84;102305.38;5060782;28;45783;-79
2021/12/12 06:27:34;;;;;;;;;17.25;14.25;;;;;10.35;71.65;102300.09;5059061;28;45473;-79
2021/12/12 06:30:00;;;;;;;;;16.00;15.00;;;;;10.35;71.77;102316.75;5059469;28;45493;-79
2021/12/12 06:32:25;;;;;;;;;15.00;13.75;;;;;10.34;71.84;102308.88;5048533;28;45402;-79
2021/12/12 06:34:55;;;;;;;;;15.50;13.00;;;;;10.34;72.03;102311.50;5059093;28;45309;-79
2021/12/12 06:37:21;;;;;;;;;14.50;14.00;;;;;10.35;71.98;102319.38;5043575;28;46281;-79
2021/12/12 06:39:49;;;;;;;;;18.75;16.00;;;;;10.37;71.84;102313.25;5049496;28;45334;-81
2021/12/12 06:42:15;;;;;;;;;15.50;14.00;;;;;10.39;72.15;102311.47;5057376;28;46754;-81
2021/12/12 06:44:41;;;;;;;;;20.50;17.50;;;;;10.41;71.99;102315.84;5040411;28;45367;-81
2021/12/12 06:47:09;;;;;;;;;19.75;16.50;;;;;10.40;72.21;102307.94;5057144;28;45495;-82
2021/12/12 06:49:36;;;;;;;;;15.00;13.75;;;;;10.41;71.91;102314.97;5048241;28;45228;-79
2021/12/12 06:52:05;;;;;;;;;16.75;14.00;;;;;10.39;72.24;102319.34;5059546;28;46712;-79
2021/12/12 06:54:31;;;;;;;;;21.00;15.25;;;;;10.40;72.35;102321.97;5059214;28;45437;-79
2021/12/12 06:57:00;;;;;;;;;14.50;14.00;;;;;10.43;72.17;102326.31;5059958;28;45279;-79
2021/12/12 06:59:29;;;;;;;;;19.50;15.25;;;;;10.44;71.89;102343.84;5045444;28;45559;-84
2021/12/12 07:01:55;;;;;;;;;17.75;14.25;;;;;10.46;72.21;102335.09;5059908;28;46354;-84
2021/12/12 07:04:21;;;;;;;;;15.75;14.50;;;;;10.46;72.21;102344.72;5058069;28;45425;-84
2021/12/12 07:06:52;;;;;;;;;16.75;15.00;;;;;10.45;72.41;102351.72;5049334;28;45283;-84
2021/12/12 07:09:18;;;;;;;;;18.00;14.25;;;;;10.42;72.33;102348.25;5060008;28;45344;-84
2021/12/12 07:11:45;;;;;;;;;16.25;13.25;;;;;10.46;72.27;102349.97;5057557;28;45345;-83
2021/12/12 07:14:16;;;;;;;;;16.25;14.50;;;;;10.48;72.41;102358.72;5047714;28;45428;-79
2021/12/12 07:16:42;;;;;;;;;21.25;17.75;;;;;10.50;72.51;102356.06;5056154;28;45537;-79
2021/12/12 07:19:09;;;;;;;;;14.75;12.00;;;;;10.50;72.52;102356.94;5060010;28;45385;-79
2021/12/12 07:21:35;;;;;;;;;15.75;12.75;;;;;10.53;72.63;102364.84;5059587;28;46406;-80
2021/12/12 07:24:03;;;;;;;;;18.75;13.25;;;;;10.55;72.55;102362.22;5057259;28;45732;-80
2021/12/12 07:26:29;;;;;;;;;18.50;15.50;;;;;10.55;72.46;102370.97;5050210;28;45366;-80
2021/12/12 07:28:57;;;;;;;;;11.25;10.25;;;;;10.56;72.33;102361.34;5041951;28;45336;-80
2021/12/12 07:31:26;;;;;;;;;16.00;13.75;;;;;10.57;72.17;102361.31;5046700;28;47239;-80
2021/12/12 07:33:54;;;;;;;;;15.25;13.25;;;;;10.59;72.51;102366.59;5058555;28;45272;-80
2021/12/12 07:36:21;;;;;;;;;15.00;13.25;;;;;10.61;72.52;102377.06;5050267;28;45228;-80
2021/12/12 07:38:53;;;;;;;;;13.75;12.75;;;;;10.60;72.52;102360.41;5059743;28;45339;-78
2021/12/12 07:41:21;;;;;;;;;13.25;12.75;;;;;10.62;72.38;102363.06;5058453;28;46795;-80
2021/12/12 07:43:47;;;;;;;;;10.75;10.75;;;;;10.64;72.34;102356.03;5039178;28;45842;-78
2021/12/12 07:46:13;;;;;;;;;15.75;14.50;;;;;10.65;72.44;102365.66;5054612;28;45350;-79
2021/12/12 07:48:42;;;;;;;;;15.00;11.50;;;;;10.67;72.40;102371.75;5059632;28;45313;-80
2021/12/12 07:51:08;;;;;;;;;16.00;13.75;;;;;10.65;72.91;102377.03;5046078;28;45400;-83
2021/12/12 07:53:34;;;;;;;;;17.25;14.25;;;;;10.68;72.61;102384.03;5052817;28;45205;-81
2021/12/12 07:55:59;;;;;;;;;14.25;13.25;;;;;10.68;72.19;102369.16;5045064;28;45265;-81
2021/12/12 07:58:26;;;;;;;;;15.50;14.25;;;;;10.72;72.58;102382.28;5047006;28;45396;-79
2021/12/12 08:00:54;;;;;;;;;14.75;14.75;;;;;10.73;72.48;102381.38;5059375;28;46435;-80
2021/12/12 08:03:23;;;;;;;;;16.75;15.75;;;;;10.73;72.43;102376.13;5057682;28;45403;-81
2021/12/12 08:05:50;;;;;;;;;16.75;15.00;;;;;10.68;72.35;102386.66;5059471;28;45271;-81
2021/12/12 08:08:17;;;;;;;;;23.50;20.75;;;;;10.70;72.65;102379.63;5059242;28;45410;-82
2021/12/12 08:10:45;;;;;;;;;16.25;13.50;;;;;10.67;72.70;102380.53;5045372;28;45562;-80
2021/12/12 08:13:13;;;;;;;;;20.00;17.25;;;;;10.70;72.54;102392.78;5051080;28;45402;-81
2021/12/12 08:15:38;;;;;;;;;20.50;16.50;;;;;10.71;72.59;102393.66;5059059;28;45439;-84
2021/12/12 08:18:07;;;;;;;;;15.75;12.75;;;;;10.72;72.72;102395.44;5051365;28;45366;-81
2021/12/12 08:20:34;;;;;;;;;18.00;14.25;;;;;10.74;72.64;102394.50;5058893;28;46479;-81
2021/12/12 08:23:00;;;;;;;;;14.00;13.50;;;;;10.77;72.70;102397.13;5058084;28;45461;-82
2021/12/12 08:25:27;;;;;;;;;14.00;11.75;;;;;10.82;72.85;102394.44;5059142;28;45281;-85
2021/12/12 08:27:57;;;;;;;;;11.00;9.00;;;;;10.83;72.71;102397.97;5058612;28;45394;-86
2021/12/12 08:30:23;;;;;;;;;12.75;10.75;;;;;10.84;72.74;102400.56;5058790;28;46494;-85
2021/12/12 08:32:52;;;;;;;;;12.00;11.00;;;;;10.86;72.54;102395.31;5056110;28;45858;-86
2021/12/12 08:35:20;;;;;;;;;16.75;12.00;;;;;10.85;72.71;102385.66;5070412;28;45431;-83
2021/12/12 08:37:47;;;;;;;;;15.25;12.50;;;;;10.88;72.88;102404.94;5053710;28;45379;-78
2021/12/12 08:40:20;;;;;;;;;15.75;11.75;;;;;10.91;72.96;102402.28;5061143;28;46527;-83
2021/12/12 08:42:48;;;;;;;;;13.75;12.00;;;;;10.90;72.83;102416.31;5060855;28;45512;-82
2021/12/12 08:45:17;;;;;;;;;13.50;12.00;;;;;10.91;73.05;102409.31;5052897;28;45545;-81
2021/12/12 08:47:43;;;;;;;;;12.25;12.00;;;;;10.90;72.95;102408.44;5061384;28;45490;-81
2021/12/12 08:50:12;;;;;;;;;10.50;10.00;;;;;10.93;72.75;102409.28;5058345;28;45258;-81
2021/12/12 08:52:40;;;;;;;;;14.25;11.25;;;;;10.94;73.04;102413.69;5045418;28;45775;-81
2021/12/12 08:55:14;;;;;;;;;11.50;11.50;;;;;10.95;73.00;102418.91;5058750;28;45311;-81
2021/12/12 08:57:52;;;;;;;;;12.50;11.00;;;;;10.97;73.04;102413.63;5061775;28;45445;-81
2021/12/12 09:00:21;;;;;;;;;15.00;12.00;;;;;10.96;73.15;102404.91;5058507;28;45468;-81
2021/12/12 09:02:47;;;;;;;;;11.75;10.00;;;;;11.01;72.69;102415.38;5061993;28;45714;-81
2021/12/12 09:05:21;;;;;;;;;14.50;12.50;;;;;10.98;73.02;102418.91;5062287;28;45459;-81
2021/12/12 09:07:49;;;;;;;;;15.75;13.00;;;;;11.01;73.10;102421.50;5052047;28;45390;-81
2021/12/12 09:10:43;;;;;;;;;12.25;11.50;;;;;11.05;73.09;102424.09;5053969;28;46522;-80
2021/12/12 09:13:29;;;;;;;;;9.00;9.00;;;;;11.08;73.15;102427.59;5048433;28;45763;-81
2021/12/12 09:16:11;;;;;;;;;9.25;9.25;;;;;11.08;73.08;102429.34;5060615;28;45437;-81
2021/12/12 09:18:46;;;;;;;;;13.25;11.25;;;;;11.09;73.13;102425.81;5060328;28;45355;-80
2021/12/12 09:21:23;;;;;;;;;14.25;12.25;;;;;11.12;73.10;102433.69;5047721;28;46124;-80
2021/12/12 09:24:05;;;;;;;;;11.75;11.75;;;;;11.17;73.33;102439.81;5060696;28;45370;-86
2021/12/12 09:26:34;;;;;;;;;11.00;10.00;;;;;11.18;73.08;102438.94;5058797;28;45244;-79
2021/12/12 09:29:14;;;;;;;;;12.25;8.25;;;;;11.25;73.34;102437.09;5059284;28;46373;-80
2021/12/12 09:31:49;;;;;;;;;12.00;12.00;;;;;11.24;73.01;102433.59;5061577;28;46575;-80
2021/12/12 09:34:25;;;;;;;;;13.00;12.25;;;;;11.27;73.12;102439.72;5061623;28;45227;-80
2021/12/12 09:37:07;;;;;;;;;12.75;11.75;;;;;11.32;73.19;102436.16;5048425;28;45275;-82
2021/12/12 09:39:42;;;;;;;;;9.75;9.50;;;;;11.37;73.24;102438.75;5061196;28;45220;-82
2021/12/12 09:42:49;;;;;;;;;12.25;9.00;;;;;11.42;72.86;102436.97;5051763;28;45497;-82
2021/12/12 09:45:27;;;;;;;;;10.50;9.00;;;;;11.48;72.70;102438.69;5047586;28;45706;-83
2021/12/12 09:51:28;;;;;;;;;11.50;10.50;;;;;11.54;72.67;102432.44;5050797;28;45385;-83
2021/12/12 09:54:17;;;;;;;;;10.75;10.75;;;;;11.60;72.78;102442.94;5042300;28;45338;-82
2021/12/12 09:57:00;;;;;;;;;11.25;9.50;;;;;11.64;72.66;102442.00;5040749;28;45599;-82
2021/12/12 09:59:44;;;;;;;;;14.00;12.50;;;;;11.64;72.76;102444.66;5059146;28;45272;-81
2021/12/12 10:02:12;;;;;;;;;12.25;10.50;;;;;11.64;72.92;102449.91;5060494;28;45291;-81
2021/12/12 10:05:13;;;;;;;;;8.00;8.00;;;;;11.61;72.71;102443.78;5057500;28;48607;-80
2021/12/12 10:08:14;;;;;;;;;11.00;11.00;;;;;11.66;72.94;102442.88;5064290;28;45799;-81
2021/12/12 10:10:52;;;;;;;;;14.75;13.50;;;;;11.67;72.85;102436.72;5049438;28;45379;-80
2021/12/12 10:13:33;;;;;;;;;12.25;12.25;;;;;11.73;72.98;102438.41;5046585;28;45517;-81
2021/12/12 10:16:05;;;;;;;;;13.25;12.00;;;;;11.72;72.75;102431.41;5057430;28;45640;-80
2021/12/12 10:19:01;;;;;;;;;12.50;11.00;;;;;11.79;72.92;102438.34;5059597;28;45336;-80
2021/12/12 10:21:56;;;;;;;;;19.00;16.50;;;;;11.83;72.90;102441.81;5041319;28;45606;-80
2021/12/12 10:24:32;;;;;;;;;16.75;16.75;;;;;11.80;73.00;102437.44;5044368;28;45433;-80
2021/12/12 10:27:17;;;;;;;;;17.25;15.00;;;;;11.85;73.03;102447.97;5046362;28;45381;-80
2021/12/12 10:30:20;;;;;;;;;13.00;13.00;;;;;11.86;73.24;102438.28;5060545;28;45219;-80
2021/12/12 10:32:49;;;;;;;;;15.00;15.00;;;;;11.88;73.08;102441.75;5057996;28;45295;-80
2021/12/12 10:35:27;;;;;;;;;19.25;17.75;;;;;11.90;73.25;102445.28;5046571;28;45390;-80
2021/12/12 10:37:56;;;;;;;;;14.75;14.25;;;;;11.93;73.31;102445.22;5058610;28;45587;-81
2021/12/12 10:40:30;;;;;;;;;18.25;15.75;;;;;11.96;73.11;102441.69;5058239;28;45271;-80
2021/12/12 10:43:02;;;;;;;;;19.00;17.75;;;;;12.00;73.08;102448.69;5053343;28;45406;-80
2021/12/12 10:45:35;;;;;;;;;17.00;15.00;;;;;11.98;73.12;102453.94;5042374;28;45478;-80
2021/12/12 10:48:16;;;;;;;;;15.25;13.00;;;;;12.00;73.03;102443.41;5060042;28;45322;-80
2021/12/12 10:51:06;;;;;;;;;18.00;14.00;;;;;12.04;73.03;102453.91;5058726;28;45856;-77
2021/12/12 10:53:41;;;;;;;;;16.00;15.00;;;;;12.04;73.06;102448.63;5048696;28;45434;-77
2021/12/12 10:56:18;;;;;;;;;10.00;9.25;;;;;12.07;72.88;102439.81;5040776;28;45509;-77
2021/12/12 10:58:51;;;;;;;;;17.00;15.25;;;;;12.07;72.99;102433.66;5059056;28;45423;-77
2021/12/12 11:01:22;;;;;;;;;15.25;14.00;;;;;12.12;73.02;102440.59;5056202;28;45848;-75
2021/12/12 11:04:01;;;;;;;;;15.75;14.50;;;;;12.17;72.95;102447.63;5046384;28;45694;-75
2021/12/12 11:06:35;;;;;;;;;13.75;12.75;;;;;12.19;72.82;102436.19;5056298;28;46216;-76
2021/12/12 11:09:12;;;;;;;;;13.00;13.00;;;;;12.24;73.08;102447.53;5047070;28;45609;-76
2021/12/12 11:11:54;;;;;;;;;19.25;16.50;;;;;12.27;72.98;102439.56;5059316;28;45815;-76
2021/12/12 11:14:52;;;;;;;;;19.75;15.75;;;;;12.28;72.92;102435.19;5052484;28;45280;-76
2021/12/12 11:17:25;;;;;;;;;19.25;16.25;;;;;12.29;72.88;102436.94;5055642;28;45896;-76
2021/12/12 11:19:58;;;;;;;;;16.00;16.00;;;;;12.34;72.93;102437.75;5053307;28;45361;-76
2021/12/12 11:22:23;;;;;;;;;36.25;31.50;;;;;12.38;72.77;102447.34;5046829;28;45702;-76
2021/12/12 11:24:56;;;;;;;;;22.33;20.00;;;;;12.40;72.85;102443.81;5048776;28;45215;-76
2021/12/12 11:27:33;;;;;;;;;21.00;18.25;;;;;12.40;73.04;102444.69;5057962;28;45300;-76
2021/12/12 11:30:05;;;;;;;;;19.50;18.00;;;;;12.40;72.55;102454.34;5054458;28;46410;-76
2021/12/12 11:32:35;;;;;;;;;18.75;16.50;;;;;12.39;72.77;102448.25;5050150;28;45311;-75
2021/12/12 11:35:04;;;;;;;;;20.00;20.00;;;;;12.46;72.58;102459.56;5050357;28;45279;-75
2021/12/12 11:37:55;;;;;;;;;17.00;15.75;;;;;12.49;72.82;102456.91;5046220;28;45608;-76
2021/12/12 11:40:46;;;;;;;;;18.50;18.50;;;;;12.49;72.67;102455.09;5034094;28;46909;-76
2021/12/12 11:43:32;;;;;;;;;18.75;17.00;;;;;12.48;72.56;102449.88;5043497;28;45790;-76
2021/12/12 11:46:02;;;;;;;;;15.75;15.00;;;;;12.51;72.47;102446.31;5057923;28;45468;-76
2021/12/12 11:48:46;;;;;;;;;16.50;14.75;;;;;12.54;72.19;102447.16;5056276;28;45406;-77
2021/12/12 11:51:48;;;;;;;;;15.75;15.75;;;;;12.54;72.71;102447.16;5039066;28;46516;-76
2021/12/12 11:54:40;;;;;;;;;16.00;16.00;;;;;12.57;72.85;102451.50;5037039;28;45706;-76